Time;durP1;ratioP1;P1;durP2;ratioP2;P2;SDS_P1;SDS_P2;PMS_P1;PMS_P2;Temp;Humidity;BMP_temperature;BMP_pressure;BME280_temperature;BME280_humidity;BME280_pressure;Samples;Min_cycle;Max_cycle;Signal;HPM_P1;HPM_P2
2023/07/29 00:04:01;;;;;;;17.50;11.25;;;26.40;66.20;;;;;;6215023;23;20079;-73
2023/07/29 00:06:27;;;;;;;12.65;5.32;;;26.30;66.30;;;;;;6215250;23;20123;-74
2023/07/29 00:08:53;;;;;;;12.27;3.78;;;26.30;66.40;;;;;;6215256;23;20037;-73
2023/07/29 00:11:19;;;;;;;12.70;5.95;;;26.30;66.20;;;;;;6215506;23;20081;-73
2023/07/29 00:13:44;;;;;;;10.15;4.85;;;26.30;66.40;;;;;;6215282;23;20060;-72
2023/07/29 00:16:10;;;;;;;12.63;6.22;;;26.30;66.30;;;;;;6215421;23;19996;-73
2023/07/29 00:18:36;;;;;;;11.80;3.72;;;26.30;66.30;;;;;;6215481;23;20001;-73
2023/07/29 00:21:02;;;;;;;11.75;5.78;;;26.20;66.40;;;;;;6214847;23;20004;-73
2023/07/29 00:23:27;;;;;;;9.38;3.40;;;26.20;66.40;;;;;;6215178;23;20422;-73
2023/07/29 00:25:53;;;;;;;13.02;5.18;;;26.20;66.60;;;;;;6215547;23;20016;-75
2023/07/29 00:28:19;;;;;;;13.80;6.68;;;26.20;66.50;;;;;;6215482;23;20009;-73
2023/07/29 00:30:44;;;;;;;12.38;6.30;;;26.20;66.40;;;;;;6215295;23;20036;-74
2023/07/29 00:33:10;;;;;;;14.68;7.47;;;26.20;66.60;;;;;;6215145;23;20299;-74
2023/07/29 00:35:36;;;;;;;15.57;5.60;;;26.20;66.30;;;;;;6214885;23;20016;-74
2023/07/29 00:38:01;;;;;;;10.55;4.20;;;26.20;66.40;;;;;;6214772;23;20446;-73
2023/07/29 00:40:29;;;;;;;9.90;3.10;;;26.20;66.30;;;;;;6215588;23;20045;-73
2023/07/29 00:42:54;;;;;;;10.05;3.65;;;26.10;66.70;;;;;;6215017;23;20059;-73
2023/07/29 00:45:20;;;;;;;12.63;3.70;;;26.10;66.00;;;;;;6215523;23;20000;-72
2023/07/29 00:47:46;;;;;;;11.02;3.85;;;26.10;66.00;;;;;;6215204;23;20044;-73
2023/07/29 00:50:14;;;;;;;11.60;3.90;;;26.10;66.30;;;;;;6214870;23;20020;-73
2023/07/29 00:52:40;;;;;;;8.30;3.47;;;26.10;66.30;;;;;;6188688;23;20074;-73
2023/07/29 00:55:07;;;;;;;8.60;3.58;;;26.00;66.00;;;;;;6214795;23;20072;-72
2023/07/29 00:57:33;;;;;;;14.20;3.75;;;26.00;66.20;;;;;;6215106;23;20300;-73
2023/07/29 01:00:00;;;;;;;12.50;3.92;;;26.00;65.90;;;;;;6214899;23;20016;-74
2023/07/29 01:02:26;;;;;;;10.15;4.03;;;26.00;65.90;;;;;;6215025;23;20462;-73
2023/07/29 01:04:55;;;;;;;11.93;4.22;;;26.00;65.80;;;;;;6215150;23;20005;-73
2023/07/29 01:07:44;;;;;;;10.27;4.38;;;26.00;65.90;;;;;;6214858;23;20000;-74
2023/07/29 01:10:21;;;;;;;14.95;4.10;;;25.90;65.70;;;;;;6214618;23;20013;-74
2023/07/29 01:12:49;;;;;;;10.25;3.90;;;25.90;65.40;;;;;;6214998;23;20068;-73
2023/07/29 01:15:20;;;;;;;9.82;4.07;;;25.90;65.30;;;;;;6215032;23;20007;-72
2023/07/29 01:18:07;;;;;;;13.15;4.63;;;25.90;64.90;;;;;;6214776;23;19996;-74
2023/07/29 01:20:36;;;;;;;12.55;4.00;;;25.80;64.60;;;;;;6214978;23;20011;-73
2023/07/29 01:23:01;;;;;;;8.63;3.72;;;25.70;64.50;;;;;;6215106;23;19997;-74
2023/07/29 01:25:27;;;;;;;12.77;4.03;;;25.70;64.50;;;;;;6214888;23;20013;-73
2023/07/29 01:27:53;;;;;;;8.82;4.25;;;25.70;64.30;;;;;;6214627;23;20028;-72
2023/07/29 01:30:21;;;;;;;12.20;3.88;;;25.70;64.30;;;;;;6188028;23;20332;-73
2023/07/29 01:32:59;;;;;;;11.05;3.65;;;25.60;64.20;;;;;;6214610;23;20024;-73
2023/07/29 01:35:42;;;;;;;13.43;4.00;;;25.60;64.40;;;;;;6214472;23;20011;-74
2023/07/29 01:38:21;;;;;;;12.23;3.80;;;25.60;64.60;;;;;;6214527;23;20067;-73
2023/07/29 01:40:49;;;;;;;9.75;3.60;;;25.60;64.60;;;;;;6214715;23;20004;-73
2023/07/29 01:43:15;;;;;;;11.73;4.10;;;25.50;64.60;;;;;;6214542;23;20492;-73
2023/07/29 01:45:41;;;;;;;16.25;3.97;;;25.50;64.50;;;;;;6214316;23;20072;-74
2023/07/29 01:48:07;;;;;;;12.95;3.67;;;25.50;64.50;;;;;;6214689;23;20031;-73
2023/07/29 01:50:36;;;;;;;10.65;3.75;;;25.50;64.80;;;;;;6214560;23;20013;-74
2023/07/29 01:53:02;;;;;;;9.18;3.28;;;25.40;64.90;;;;;;6214275;23;20076;-72
2023/07/29 01:55:28;;;;;;;10.20;3.40;;;25.40;65.00;;;;;;6214664;23;20040;-72
2023/07/29 01:57:54;;;;;;;8.32;3.35;;;25.30;65.20;;;;;;6214484;23;20024;-74
2023/07/29 02:00:20;;;;;;;9.77;3.47;;;25.30;65.30;;;;;;6214519;23;20084;-72
2023/07/29 02:02:46;;;;;;;9.30;3.05;;;25.30;65.10;;;;;;6214181;23;20024;-74
2023/07/29 02:05:12;;;;;;;9.85;3.50;;;25.30;64.80;;;;;;6214360;23;20000;-73
2023/07/29 02:07:38;;;;;;;11.57;3.60;;;25.20;64.70;;;;;;6214249;23;20023;-74
2023/07/29 02:10:04;;;;;;;10.63;3.20;;;25.10;64.50;;;;;;6214319;23;20009;-73
2023/07/29 02:12:29;;;;;;;11.02;3.58;;;25.00;64.40;;;;;;6214429;23;20020;-73
2023/07/29 02:14:55;;;;;;;8.30;3.58;;;25.00;64.40;;;;;;6214004;23;20501;-74
2023/07/29 02:17:21;;;;;;;10.13;3.35;;;25.00;64.40;;;;;;6214280;23;20007;-73
2023/07/29 02:19:46;;;;;;;10.13;3.00;;;25.00;64.20;;;;;;6214234;23;20000;-73
2023/07/29 02:22:16;;;;;;;8.25;3.00;;;24.90;64.20;;;;;;6214343;23;20052;-72
2023/07/29 02:24:42;;;;;;;8.98;2.70;;;24.90;64.40;;;;;;6187608;23;20123;-73
2023/07/29 02:27:08;;;;;;;8.32;3.05;;;24.90;64.10;;;;;;6214053;23;20698;-73
2023/07/29 02:29:34;;;;;;;7.43;2.97;;;24.90;63.90;;;;;;6214235;23;20013;-74
2023/07/29 02:32:00;;;;;;;9.13;2.60;;;24.90;63.80;;;;;;6214193;23;20343;-73
2023/07/29 02:34:26;;;;;;;8.93;2.97;;;24.90;63.70;;;;;;6214357;23;20005;-70
2023/07/29 02:36:51;;;;;;;7.03;2.60;;;24.90;63.90;;;;;;6214279;23;20000;-73
2023/07/29 02:39:17;;;;;;;6.60;2.95;;;24.90;63.70;;;;;;6214038;23;20467;-74
2023/07/29 02:41:43;;;;;;;7.50;3.00;;;24.90;63.50;;;;;;6214145;23;20004;-73
2023/07/29 02:44:08;;;;;;;9.68;2.60;;;24.90;63.60;;;;;;6214275;23;20004;-73
2023/07/29 02:46:34;;;;;;;6.85;2.85;;;24.90;63.40;;;;;;6214131;23;19996;-74
2023/07/29 02:49:01;;;;;;;10.73;2.97;;;24.80;63.40;;;;;;6213947;23;20059;-74
2023/07/29 02:51:27;;;;;;;8.57;3.45;;;24.70;63.50;;;;;;6214617;23;20431;-74
2023/07/29 02:53:52;;;;;;;9.25;3.05;;;24.70;63.70;;;;;;6214556;23;20001;-74
2023/07/29 02:56:18;;;;;;;9.48;2.65;;;24.70;63.70;;;;;;6214481;23;19997;-73
2023/07/29 02:58:44;;;;;;;8.55;2.92;;;24.70;63.90;;;;;;6214147;23;20005;-73
2023/07/29 03:01:10;;;;;;;6.53;3.10;;;24.60;63.90;;;;;;6214244;23;20124;-73
2023/07/29 03:03:36;;;;;;;9.32;2.78;;;24.60;63.80;;;;;;6214163;23;20411;-72
2023/07/29 03:06:06;;;;;;;8.70;2.80;;;24.60;63.90;;;;;;6214019;23;20001;-74
2023/07/29 03:08:32;;;;;;;6.40;2.40;;;24.60;64.60;;;;;;6214101;23;20366;-72
2023/07/29 03:10:58;;;;;;;7.90;2.42;;;24.60;63.90;;;;;;6214069;23;20096;-72
2023/07/29 03:13:24;;;;;;;8.55;2.90;;;24.60;63.70;;;;;;6214172;23;20003;-74
2023/07/29 03:15:51;;;;;;;8.38;2.40;;;24.50;63.90;;;;;;6187435;23;20438;-75
2023/07/29 03:18:16;;;;;;;8.80;2.75;;;24.40;63.90;;;;;;6214451;23;20064;-74
2023/07/29 03:20:42;;;;;;;8.38;2.40;;;24.30;63.80;;;;;;6214224;23;20024;-74
2023/07/29 03:23:08;;;;;;;6.25;2.50;;;24.30;64.00;;;;;;6214334;23;20004;-74
2023/07/29 03:25:33;;;;;;;6.63;2.72;;;24.30;63.80;;;;;;6214368;23;20378;-73
2023/07/29 03:28:00;;;;;;;8.55;2.63;;;24.30;63.70;;;;;;6214015;23;20088;-73
2023/07/29 03:30:25;;;;;;;4.57;2.20;;;24.40;63.80;;;;;;6215762;23;20005;-73
2023/07/29 03:32:51;;;;;;;7.63;2.70;;;24.30;63.60;;;;;;6216341;23;20064;-73
2023/07/29 03:35:17;;;;;;;6.75;2.28;;;24.20;63.70;;;;;;6216458;23;20008;-73
2023/07/29 03:37:43;;;;;;;7.28;2.30;;;24.20;63.80;;;;;;6216295;23;20331;-74
2023/07/29 03:40:09;;;;;;;7.68;2.65;;;24.20;63.70;;;;;;6216698;23;20023;-73
2023/07/29 03:42:35;;;;;;;8.90;2.33;;;24.20;63.70;;;;;;6215905;23;20068;-73
2023/07/29 03:45:01;;;;;;;8.75;2.55;;;24.20;63.80;;;;;;6215838;23;20394;-74
2023/07/29 03:47:27;;;;;;;11.25;2.97;;;24.20;64.20;;;;;;6215966;23;20389;-74
2023/07/29 03:49:54;;;;;;;9.07;2.83;;;24.20;64.10;;;;;;6215904;23;20008;-74
2023/07/29 03:52:19;;;;;;;6.32;2.58;;;24.20;64.00;;;;;;6215916;23;20009;-74
2023/07/29 03:54:45;;;;;;;7.47;2.65;;;24.20;64.10;;;;;;6215400;23;20055;-72
2023/07/29 03:57:11;;;;;;;6.32;2.60;;;24.20;64.10;;;;;;6215861;23;20007;-73
2023/07/29 03:59:36;;;;;;;9.70;2.72;;;24.20;64.50;;;;;;6215191;23;20005;-74
2023/07/29 04:02:02;;;;;;;8.63;2.85;;;24.20;64.40;;;;;;6215710;23;20071;-73
2023/07/29 04:04:28;;;;;;;8.65;2.92;;;24.30;64.50;;;;;;6215664;23;20000;-73
2023/07/29 04:06:54;;;;;;;6.97;2.72;;;24.30;65.20;;;;;;6215391;23;20056;-73
2023/07/29 04:09:19;;;;;;;7.78;2.45;;;24.20;64.50;;;;;;6215723;23;20015;-73
2023/07/29 04:11:45;;;;;;;7.70;2.63;;;24.20;64.50;;;;;;6215657;23;20003;-73
2023/07/29 04:14:11;;;;;;;8.90;3.05;;;24.20;64.40;;;;;;6189023;23;20019;-73
2023/07/29 04:16:36;;;;;;;12.65;2.70;;;24.20;64.20;;;;;;6215880;23;20051;-73
2023/07/29 04:19:02;;;;;;;6.00;2.45;;;24.20;64.20;;;;;;6215301;23;20023;-73
2023/07/29 04:21:28;;;;;;;6.65;2.75;;;24.20;64.20;;;;;;6214928;23;20418;-73
2023/07/29 04:23:53;;;;;;;7.00;2.60;;;24.20;64.40;;;;;;6215343;23;20056;-74
2023/07/29 04:26:19;;;;;;;7.57;2.78;;;24.20;64.60;;;;;;6215328;23;19996;-73
2023/07/29 04:28:45;;;;;;;8.70;3.40;;;24.20;64.70;;;;;;6215552;23;20001;-73
2023/07/29 04:31:10;;;;;;;8.90;3.13;;;24.20;64.50;;;;;;6215258;23;20004;-72
2023/07/29 04:33:36;;;;;;;8.40;2.72;;;24.20;64.90;;;;;;6215157;23;20001;-74
2023/07/29 04:36:02;;;;;;;8.93;2.67;;;24.10;65.20;;;;;;6187984;23;20016;-74
2023/07/29 04:38:35;;;;;;;9.85;2.97;;;24.20;65.50;;;;;;6215486;23;20351;-73
2023/07/29 04:41:01;;;;;;;9.13;2.80;;;24.20;66.20;;;;;;6214826;23;20426;-73
2023/07/29 04:43:31;;;;;;;6.22;2.65;;;24.10;66.10;;;;;;6215155;23;20039;-74
2023/07/29 04:45:57;;;;;;;10.20;3.00;;;24.00;66.60;;;;;;6214900;23;20082;-73
2023/07/29 04:48:23;;;;;;;7.68;2.88;;;24.10;66.70;;;;;;6215153;23;20462;-73
2023/07/29 04:50:49;;;;;;;9.10;2.67;;;24.00;67.10;;;;;;6215286;23;20008;-72
2023/07/29 04:53:14;;;;;;;10.63;2.72;;;24.10;67.10;;;;;;6214915;23;20000;-75
2023/07/29 04:55:43;;;;;;;8.30;2.65;;;24.10;66.90;;;;;;6215202;23;20075;-73
2023/07/29 04:58:10;;;;;;;11.70;2.55;;;24.10;67.40;;;;;;6188022;23;20008;-73
2023/07/29 05:00:35;;;;;;;12.57;3.17;;;24.10;68.10;;;;;;6215436;23;20000;-75
2023/07/29 05:03:01;;;;;;;8.18;2.58;;;24.10;67.20;;;;;;6215048;23;20350;-74
2023/07/29 05:05:27;;;;;;;7.85;2.88;;;24.10;67.20;;;;;;6215180;23;20027;-74
2023/07/29 05:07:53;;;;;;;8.15;2.78;;;24.00;67.10;;;;;;6215128;23;20011;-74
2023/07/29 05:10:19;;;;;;;8.57;2.80;;;24.00;67.10;;;;;;6214972;23;20019;-73
2023/07/29 05:12:45;;;;;;;7.30;2.55;;;24.10;67.10;;;;;;6214828;23;20008;-74
2023/07/29 05:15:10;;;;;;;6.72;2.78;;;24.10;67.20;;;;;;6214563;23;20008;-74
2023/07/29 05:17:36;;;;;;;10.32;3.15;;;24.20;66.80;;;;;;6188079;23;20399;-73
2023/07/29 05:20:02;;;;;;;7.45;2.47;;;24.20;66.50;;;;;;6214644;23;20035;-73
2023/07/29 05:22:28;;;;;;;7.68;2.30;;;24.30;66.50;;;;;;6215011;23;20005;-72
2023/07/29 05:24:54;;;;;;;8.50;2.80;;;24.40;66.30;;;;;;6214834;23;20035;-73
2023/07/29 05:27:19;;;;;;;5.47;2.25;;;24.70;66.10;;;;;;6215043;23;20025;-73
2023/07/29 05:29:45;;;;;;;6.07;2.47;;;25.00;65.10;;;;;;6214369;23;20296;-73
2023/07/29 05:32:11;;;;;;;7.85;3.00;;;25.40;64.50;;;;;;6214809;23;20003;-73
2023/07/29 05:34:37;;;;;;;7.35;2.97;;;25.80;63.40;;;;;;6214724;23;20291;-75
2023/07/29 05:37:02;;;;;;;10.18;2.72;;;26.10;62.80;;;;;;6214733;23;20032;-74
2023/07/29 05:39:28;;;;;;;10.10;2.60;;;26.30;62.00;;;;;;6214748;23;20004;-77
2023/07/29 05:41:54;;;;;;;11.23;3.33;;;26.50;61.40;;;;;;6214691;23;20000;-73
2023/07/29 05:44:20;;;;;;;6.00;2.60;;;26.70;60.90;;;;;;6214578;23;20099;-74
2023/07/29 05:46:46;;;;;;;9.55;3.05;;;26.90;60.40;;;;;;6214622;23;20013;-74
2023/07/29 05:49:11;;;;;;;7.78;2.63;;;27.10;60.10;;;;;;6214751;23;20390;-75
2023/07/29 05:51:37;;;;;;;8.10;2.75;;;27.40;59.30;;;;;;6214300;23;20080;-74
2023/07/29 05:54:03;;;;;;;7.13;2.60;;;27.80;58.80;;;;;;6214046;23;20062;-74
2023/07/29 05:56:29;;;;;;;7.88;2.63;;;27.80;58.40;;;;;;6214681;23;20016;-74
2023/07/29 05:58:55;;;;;;;11.95;3.25;;;28.10;58.10;;;;;;6214536;23;20000;-74
2023/07/29 06:01:21;;;;;;;9.35;2.70;;;28.20;57.60;;;;;;6187870;23;20004;-73
2023/07/29 06:03:47;;;;;;;7.63;2.78;;;28.30;57.50;;;;;;6214022;23;20331;-74
2023/07/29 06:06:13;;;;;;;9.25;3.00;;;28.40;57.10;;;;;;6214369;23;20001;-75
2023/07/29 06:08:39;;;;;;;6.93;2.67;;;28.50;57.00;;;;;;6214323;23;20494;-74
2023/07/29 06:11:06;;;;;;;8.85;2.55;;;28.70;56.90;;;;;;6214436;23;20071;-74
2023/07/29 06:13:32;;;;;;;7.53;2.50;;;28.90;56.60;;;;;;6214525;23;20109;-74
2023/07/29 06:15:58;;;;;;;8.73;2.63;;;28.90;56.50;;;;;;6214097;23;20019;-74
2023/07/29 06:18:24;;;;;;;5.45;2.15;;;28.90;56.40;;;;;;6214126;23;20327;-75
2023/07/29 06:20:50;;;;;;;10.18;2.88;;;29.20;56.10;;;;;;6187806;23;20415;-75
2023/07/29 06:23:16;;;;;;;9.23;2.72;;;29.30;56.00;;;;;;6214494;23;20083;-75
2023/07/29 06:25:41;;;;;;;10.50;3.00;;;29.30;55.60;;;;;;6214463;23;20047;-72
2023/07/29 06:28:09;;;;;;;6.90;2.13;;;29.40;55.40;;;;;;6214059;23;20004;-75
2023/07/29 06:30:35;;;;;;;8.38;2.63;;;29.70;55.30;;;;;;6214389;23;20047;-75
2023/07/29 06:33:00;;;;;;;9.35;2.42;;;29.90;54.60;;;;;;6214235;23;20446;-73
2023/07/29 06:35:26;;;;;;;9.35;2.60;;;29.90;54.50;;;;;;6214301;23;20008;-75
2023/07/29 06:37:52;;;;;;;7.72;2.40;;;30.10;54.20;;;;;;6214389;23;20076;-75
2023/07/29 06:40:17;;;;;;;5.88;2.85;;;30.20;53.80;;;;;;6214615;23;20028;-74
2023/07/29 06:42:43;;;;;;;8.48;3.05;;;30.40;53.60;;;;;;6214972;23;20028;-76
2023/07/29 06:45:10;;;;;;;7.93;2.70;;;30.60;53.10;;;;;;6188020;23;20012;-74
2023/07/29 06:47:35;;;;;;;8.95;2.97;;;30.70;52.50;;;;;;6214798;23;20005;-76
2023/07/29 06:50:01;;;;;;;7.50;2.50;;;31.00;52.30;;;;;;6214021;23;20015;-75
2023/07/29 06:52:27;;;;;;;8.57;2.50;;;31.10;52.10;;;;;;6214411;23;20504;-75
2023/07/29 06:54:52;;;;;;;9.63;2.55;;;31.20;51.90;;;;;;6213998;23;20071;-74
2023/07/29 06:57:18;;;;;;;13.80;2.70;;;31.20;51.70;;;;;;6214360;23;20004;-74
2023/07/29 06:59:44;;;;;;;6.55;2.35;;;31.30;51.80;;;;;;6214160;23;20007;-75
2023/07/29 07:02:09;;;;;;;7.40;2.60;;;31.40;51.60;;;;;;6213857;23;20017;-75
2023/07/29 07:04:35;;;;;;;9.02;2.75;;;31.30;51.40;;;;;;6214974;23;20108;-75
2023/07/29 07:07:01;;;;;;;7.75;3.25;;;31.10;51.20;;;;;;6215836;23;20032;-75
2023/07/29 07:09:26;;;;;;;6.65;2.35;;;31.00;51.30;;;;;;6215461;23;20009;-72
2023/07/29 07:11:52;;;;;;;10.35;3.25;;;31.10;51.50;;;;;;6215904;23;20000;-74
2023/07/29 07:14:18;;;;;;;10.45;2.58;;;31.10;51.30;;;;;;6216197;23;20032;-75
2023/07/29 07:16:44;;;;;;;8.95;2.72;;;31.10;51.00;;;;;;6216711;23;20005;-74
2023/07/29 07:19:10;;;;;;;7.28;2.92;;;31.00;51.00;;;;;;6216397;23;20075;-74
2023/07/29 07:21:36;;;;;;;7.43;2.60;;;30.80;51.00;;;;;;6216424;23;19997;-75
2023/07/29 07:24:02;;;;;;;10.10;3.28;;;31.00;51.00;;;;;;6215972;23;20008;-75
2023/07/29 07:26:27;;;;;;;10.00;2.47;;;31.10;50.70;;;;;;6216062;23;19996;-74
2023/07/29 07:28:53;;;;;;;8.93;3.20;;;31.20;50.70;;;;;;6215909;23;20064;-75
2023/07/29 07:31:19;;;;;;;7.95;2.40;;;31.30;50.20;;;;;;6216178;23;20430;-75
2023/07/29 07:33:45;;;;;;;10.85;2.50;;;31.20;50.30;;;;;;6219734;23;20007;-76
2023/07/29 07:36:10;;;;;;;6.60;2.67;;;31.10;50.60;;;;;;6222004;23;20019;-74
2023/07/29 07:38:36;;;;;;;11.55;2.40;;;31.00;50.80;;;;;;6216103;23;20023;-74
2023/07/29 07:41:02;;;;;;;10.40;3.17;;;30.80;51.00;;;;;;6216050;23;20012;-75
2023/07/29 07:43:28;;;;;;;9.00;3.33;;;30.80;51.00;;;;;;6215575;23;20008;-73
2023/07/29 07:46:01;;;;;;;9.38;2.67;;;30.90;51.00;;;;;;6215792;23;20015;-75
2023/07/29 07:48:30;;;;;;;7.25;2.42;;;30.90;50.90;;;;;;6215892;23;20004;-75
2023/07/29 07:50:55;;;;;;;8.55;2.47;;;31.00;50.50;;;;;;6215951;23;20075;-74
2023/07/29 07:53:21;;;;;;;6.50;2.17;;;30.90;50.80;;;;;;6215584;23;20032;-74
2023/07/29 07:55:47;;;;;;;9.43;2.90;;;30.70;51.10;;;;;;6215655;23;20004;-74
2023/07/29 07:58:13;;;;;;;7.25;2.55;;;30.70;51.20;;;;;;6189336;23;20009;-75
2023/07/29 08:00:39;;;;;;;6.57;2.40;;;30.60;51.20;;;;;;6215829;23;20083;-74
2023/07/29 08:03:04;;;;;;;7.95;2.53;;;30.70;51.40;;;;;;6216019;23;20066;-75
2023/07/29 08:05:30;;;;;;;6.22;2.22;;;30.60;51.20;;;;;;6216142;23;20005;-74
2023/07/29 08:07:57;;;;;;;7.95;2.25;;;30.50;51.40;;;;;;6215291;23;19997;-76
2023/07/29 08:10:22;;;;;;;7.88;2.70;;;30.50;51.50;;;;;;6215764;23;20399;-74
2023/07/29 08:12:48;;;;;;;8.80;2.50;;;30.50;51.60;;;;;;6215989;23;19996;-73
2023/07/29 08:15:14;;;;;;;7.88;2.45;;;30.60;51.60;;;;;;6215571;23;20005;-74
2023/07/29 08:17:39;;;;;;;6.70;2.60;;;30.60;51.50;;;;;;6214989;23;20000;-75
2023/07/29 08:20:06;;;;;;;17.92;4.72;;;30.70;51.60;;;;;;6215280;23;19996;-74
2023/07/29 08:22:32;;;;;;;15.18;3.10;;;30.60;51.20;;;;;;6215701;23;20011;-74
2023/07/29 08:24:57;;;;;;;12.07;2.97;;;30.50;51.60;;;;;;6215680;23;20005;-75
2023/07/29 08:27:23;;;;;;;9.30;2.97;;;30.30;51.80;;;;;;6215557;23;20136;-74
2023/07/29 08:29:49;;;;;;;9.82;3.20;;;30.30;52.00;;;;;;6214949;23;20015;-74
2023/07/29 08:32:14;;;;;;;10.77;3.20;;;30.10;52.10;;;;;;6215525;23;20120;-75
2023/07/29 08:34:40;;;;;;;10.95;3.50;;;30.10;52.30;;;;;;6214990;23;20004;-74
2023/07/29 08:37:06;;;;;;;8.05;2.80;;;29.90;52.40;;;;;;6215120;23;19996;-75
2023/07/29 08:39:32;;;;;;;6.70;3.00;;;29.90;52.40;;;;;;6215506;23;20001;-75
2023/07/29 08:42:00;;;;;;;9.57;3.42;;;29.90;52.50;;;;;;6189026;23;20043;-75
2023/07/29 08:44:35;;;;;;;6.40;2.90;;;29.90;52.60;;;;;;6215814;23;20335;-74
2023/07/29 08:47:01;;;;;;;8.50;2.60;;;29.90;53.10;;;;;;6216015;23;20339;-74
2023/07/29 08:49:28;;;;;;;5.78;2.55;;;29.90;52.80;;;;;;6215754;23;20009;-75
2023/07/29 08:51:57;;;;;;;10.65;3.58;;;29.80;53.00;;;;;;6215543;23;20000;-75
2023/07/29 08:54:23;;;;;;;7.93;2.55;;;29.80;53.10;;;;;;6215786;23;20075;-74
2023/07/29 08:56:49;;;;;;;7.07;2.65;;;29.70;52.80;;;;;;6215369;23;20368;-75
2023/07/29 08:59:16;;;;;;;6.28;2.67;;;29.60;52.90;;;;;;6215391;23;20000;-74
2023/07/29 09:01:43;;;;;;;7.47;3.08;;;29.50;53.00;;;;;;6215255;23;20004;-75
2023/07/29 09:04:09;;;;;;;8.85;2.80;;;29.40;53.00;;;;;;6215211;23;20091;-74
2023/07/29 09:06:36;;;;;;;6.80;2.70;;;29.40;53.20;;;;;;6215343;23;20117;-74
2023/07/29 09:09:02;;;;;;;6.95;3.22;;;29.30;53.50;;;;;;6214884;23;20454;-75
2023/07/29 09:11:28;;;;;;;6.10;2.45;;;29.30;53.60;;;;;;6215084;23;20075;-73
2023/07/29 09:13:54;;;;;;;16.35;3.25;;;29.30;53.10;;;;;;6214850;23;20366;-74
2023/07/29 09:16:24;;;;;;;7.82;3.03;;;29.30;52.80;;;;;;6188553;23;20005;-74
2023/07/29 09:18:50;;;;;;;8.43;3.10;;;29.30;53.10;;;;;;6215092;23;20059;-76
2023/07/29 09:21:28;;;;;;;7.20;3.10;;;29.30;52.70;;;;;;6215668;23;19997;-74
2023/07/29 09:23:54;;;;;;;7.90;3.28;;;29.40;52.00;;;;;;6215372;23;20007;-74
2023/07/29 09:26:27;;;;;;;7.22;2.90;;;29.40;52.10;;;;;;6215390;23;20002;-75
2023/07/29 09:28:57;;;;;;;8.63;2.80;;;29.40;51.40;;;;;;6215168;23;20019;-76
2023/07/29 09:31:24;;;;;;;8.57;3.30;;;29.50;52.50;;;;;;6215806;23;20024;-75
2023/07/29 09:33:59;;;;;;;6.70;2.90;;;29.60;52.40;;;;;;6215034;23;20052;-75
2023/07/29 09:36:25;;;;;;;9.55;3.03;;;29.60;52.30;;;;;;6215500;23;20100;-75
2023/07/29 09:38:55;;;;;;;7.38;3.33;;;29.70;52.40;;;;;;6215347;23;19996;-75
2023/07/29 09:41:26;;;;;;;9.75;4.40;;;29.70;52.20;;;;;;6215366;23;20012;-75
2023/07/29 09:44:01;;;;;;;5.95;2.70;;;29.80;52.10;;;;;;6214837;23;19996;-75
2023/07/29 09:46:35;;;;;;;13.30;2.58;;;29.90;51.90;;;;;;6215139;23;20005;-74
2023/07/29 09:49:05;;;;;;;6.75;2.80;;;29.90;51.20;;;;;;6188129;23;20095;-75
2023/07/29 09:51:31;;;;;;;7.63;2.55;;;29.90;50.70;;;;;;6214909;23;20071;-75
2023/07/29 09:53:58;;;;;;;6.75;2.33;;;30.00;50.20;;;;;;6187929;23;20438;-75
2023/07/29 09:56:27;;;;;;;6.63;2.88;;;30.00;50.00;;;;;;6214518;23;19997;-75
2023/07/29 09:58:56;;;;;;;8.02;2.92;;;30.00;49.80;;;;;;6214793;23;20008;-74
2023/07/29 10:01:22;;;;;;;6.40;2.63;;;30.00;50.00;;;;;;6215197;23;20304;-74
2023/07/29 10:03:49;;;;;;;6.40;2.33;;;30.10;50.40;;;;;;6214466;23;20094;-74
2023/07/29 10:06:15;;;;;;;7.63;2.65;;;30.00;50.90;;;;;;6214935;23;20028;-75
2023/07/29 10:08:43;;;;;;;6.60;2.50;;;29.90;51.10;;;;;;6214607;23;20008;-76
2023/07/29 10:11:09;;;;;;;7.10;2.60;;;29.80;51.30;;;;;;6214675;23;20005;-74
2023/07/29 10:13:36;;;;;;;5.63;2.42;;;29.80;51.50;;;;;;6215042;23;20007;-74
2023/07/29 10:16:03;;;;;;;9.85;3.03;;;29.80;52.20;;;;;;6214946;23;20000;-73
2023/07/29 10:18:30;;;;;;;6.95;3.17;;;29.90;51.70;;;;;;6214941;23;20032;-75
2023/07/29 10:20:58;;;;;;;7.28;2.83;;;30.00;51.80;;;;;;6214441;23;20080;-74
2023/07/29 10:23:26;;;;;;;6.43;2.85;;;30.00;51.80;;;;;;6214360;23;20450;-75
2023/07/29 10:26:03;;;;;;;7.95;3.08;;;30.10;51.60;;;;;;6214665;23;20080;-74
2023/07/29 10:28:30;;;;;;;8.32;3.05;;;30.20;51.40;;;;;;6214905;23;19996;-75
2023/07/29 10:30:57;;;;;;;5.88;2.50;;;30.20;51.30;;;;;;6214881;23;20043;-74
2023/07/29 10:33:23;;;;;;;9.85;4.25;;;30.20;51.30;;;;;;6215042;23;20088;-75
2023/07/29 10:35:49;;;;;;;8.20;2.70;;;30.30;51.40;;;;;;6187805;23;20073;-74
2023/07/29 10:38:16;;;;;;;6.68;2.70;;;30.30;51.10;;;;;;6214813;23;19996;-75
2023/07/29 10:40:51;;;;;;;6.43;2.70;;;30.40;51.10;;;;;;6217629;23;20442;-75
2023/07/29 10:43:38;;;;;;;6.95;2.88;;;30.50;51.00;;;;;;6217960;23;19996;-76
2023/07/29 10:46:21;;;;;;;8.00;2.85;;;30.60;51.20;;;;;;6217952;23;20475;-74
2023/07/29 10:48:53;;;;;;;8.65;2.60;;;30.70;50.90;;;;;;6217822;23;20000;-76
2023/07/29 10:51:35;;;;;;;8.95;2.60;;;30.80;50.80;;;;;;6218092;23;20001;-75
2023/07/29 10:54:02;;;;;;;6.32;2.30;;;31.00;50.60;;;;;;6218240;23;20001;-75
2023/07/29 10:56:35;;;;;;;8.52;3.00;;;31.00;50.40;;;;;;6218070;23;20076;-75
2023/07/29 10:59:16;;;;;;;7.15;2.50;;;31.10;50.20;;;;;;6217891;23;20068;-76
2023/07/29 11:01:54;;;;;;;8.20;2.28;;;31.20;49.60;;;;;;6217902;23;20067;-74
2023/07/29 11:04:20;;;;;;;7.28;2.70;;;31.20;49.50;;;;;;6218086;23;20001;-75
2023/07/29 11:07:04;;;;;;;9.05;2.75;;;31.30;50.20;;;;;;6191381;23;20104;-75
2023/07/29 11:09:51;;;;;;;12.30;2.67;;;31.40;52.20;;;;;;6218071;23;20013;-75
2023/07/29 11:12:46;;;;;;;7.10;2.17;;;31.40;53.40;;;;;;6218530;23;20327;-77
2023/07/29 11:15:17;;;;;;;11.35;3.63;;;31.50;52.70;;;;;;6218412;23;20366;-76
2023/07/29 11:17:56;;;;;;;9.65;2.95;;;31.50;53.90;;;;;;6218336;23;20003;-74
2023/07/29 11:20:32;;;;;;;8.75;2.80;;;31.60;54.10;;;;;;6217387;23;20382;-74
2023/07/29 11:23:02;;;;;;;11.68;3.00;;;31.50;55.20;;;;;;6217668;23;20005;-76
2023/07/29 11:25:30;;;;;;;5.18;2.33;;;31.50;55.50;;;;;;6217660;23;20453;-76
2023/07/29 11:27:58;;;;;;;6.63;2.38;;;31.60;55.30;;;;;;6217293;23;20032;-74
2023/07/29 11:30:26;;;;;;;9.82;2.97;;;31.60;55.70;;;;;;6217657;23;20335;-77
2023/07/29 11:32:53;;;;;;;6.35;2.25;;;31.70;55.70;;;;;;6217540;23;20047;-76
2023/07/29 11:35:19;;;;;;;6.43;2.67;;;31.70;55.90;;;;;;6165738;23;20096;-75
2023/07/29 11:37:47;;;;;;;9.90;3.03;;;31.70;55.70;;;;;;6217637;23;20032;-75
2023/07/29 11:40:21;;;;;;;10.52;2.45;;;31.80;55.60;;;;;;6217799;23;20008;-76
2023/07/29 11:42:50;;;;;;;5.63;2.25;;;31.80;54.90;;;;;;6217611;23;20497;-75
2023/07/29 11:45:16;;;;;;;11.27;2.60;;;31.80;55.70;;;;;;6217362;23;20004;-75
2023/07/29 11:47:42;;;;;;;6.65;2.40;;;31.80;55.80;;;;;;6217342;23;20012;-75
2023/07/29 11:50:13;;;;;;;10.65;2.70;;;31.80;55.70;;;;;;6217706;23;20023;-74
2023/07/29 11:52:40;;;;;;;8.45;2.63;;;31.90;55.50;;;;;;6216339;23;20012;-76
2023/07/29 11:55:06;;;;;;;6.95;2.40;;;31.90;55.50;;;;;;6216001;23;20001;-75
2023/07/29 11:57:38;;;;;;;8.52;2.85;;;32.00;55.30;;;;;;6216142;23;20004;-76
2023/07/29 12:00:06;;;;;;;6.40;3.08;;;32.10;55.70;;;;;;6215843;23;20055;-76
2023/07/29 12:02:36;;;;;;;7.28;2.50;;;32.10;55.10;;;;;;6215755;23;20056;-75
2023/07/29 12:05:04;;;;;;;8.93;3.05;;;32.20;54.50;;;;;;6188877;23;20447;-76
2023/07/29 12:07:29;;;;;;;7.55;2.58;;;32.30;55.20;;;;;;6215691;23;20001;-75
2023/07/29 12:09:55;;;;;;;5.22;2.20;;;32.20;55.30;;;;;;6215849;23;20020;-76
2023/07/29 12:12:23;;;;;;;5.65;2.33;;;32.20;55.30;;;;;;6188856;23;20009;-75
2023/07/29 12:14:49;;;;;;;6.10;2.30;;;32.30;55.40;;;;;;6215875;23;20015;-75
2023/07/29 12:17:15;;;;;;;7.97;2.60;;;32.30;55.40;;;;;;6215983;23;20020;-76
2023/07/29 12:19:42;;;;;;;7.45;2.60;;;32.30;55.10;;;;;;6215968;23;20092;-75
2023/07/29 12:22:09;;;;;;;10.10;2.78;;;32.40;55.30;;;;;;6215752;23;19997;-74
2023/07/29 12:24:40;;;;;;;6.45;2.15;;;32.40;55.20;;;;;;6215788;23;20435;-76
2023/07/29 12:27:14;;;;;;;7.25;2.90;;;32.50;55.30;;;;;;6216102;23;20140;-74
2023/07/29 12:29:43;;;;;;;5.05;2.40;;;32.50;54.50;;;;;;6215780;23;20083;-75
2023/07/29 12:32:10;;;;;;;12.77;2.42;;;32.50;55.50;;;;;;6215494;23;20048;-75
2023/07/29 12:34:38;;;;;;;6.57;2.40;;;32.50;55.30;;;;;;6215565;23;20000;-74
2023/07/29 12:37:05;;;;;;;8.57;2.45;;;32.60;55.60;;;;;;6215850;23;20003;-77
2023/07/29 12:39:33;;;;;;;8.65;2.53;;;32.70;55.00;;;;;;6215877;23;20422;-79
2023/07/29 12:42:00;;;;;;;7.70;3.00;;;32.80;55.30;;;;;;6215490;23;20004;-75
2023/07/29 12:44:33;;;;;;;6.35;2.60;;;32.80;55.30;;;;;;6215804;23;20004;-76
2023/07/29 12:47:02;;;;;;;10.23;2.90;;;32.70;55.20;;;;;;6215638;23;20427;-76